createdAt,value
2022-09-30T00:01:11.522Z,7.50
2022-09-30T00:03:37.901Z,7.60
2022-09-30T00:06:08.622Z,7.50
2022-09-30T00:08:39.360Z,6.93
2022-09-30T00:11:16.275Z,7.40
2022-09-30T00:13:44.280Z,7.50
2022-09-30T00:16:12.491Z,7.40
2022-09-30T00:18:39.975Z,7.40
2022-09-30T00:21:08.197Z,7.73
2022-09-30T00:23:37.801Z,7.23
2022-09-30T00:26:07.210Z,7.30
2022-09-30T00:28:34.185Z,6.77
2022-09-30T00:31:02.270Z,7.37
2022-09-30T00:33:28.985Z,6.90
2022-09-30T00:35:55.342Z,7.33
2022-09-30T00:38:21.730Z,8.10
2022-09-30T00:40:49.157Z,7.43
2022-09-30T00:43:20.575Z,7.60
2022-09-30T00:45:55.594Z,7.23
2022-09-30T00:48:33.596Z,7.63
2022-09-30T00:51:02.578Z,7.43
2022-09-30T00:53:34.364Z,6.87
2022-09-30T00:56:13.951Z,7.27
2022-09-30T00:58:50.627Z,7.10
2022-09-30T01:01:18.046Z,6.90
2022-09-30T01:03:50.147Z,7.73
2022-09-30T01:06:17.554Z,6.97
2022-09-30T01:08:45.357Z,7.77
2022-09-30T01:11:12.170Z,6.70
2022-09-30T01:13:40.593Z,6.87
2022-09-30T01:16:32.122Z,7.00
2022-09-30T01:19:20.163Z,6.87
2022-09-30T01:21:52.587Z,6.53
2022-09-30T01:24:40.303Z,6.80
2022-09-30T01:27:31.710Z,6.30
2022-09-30T01:30:04.267Z,7.60
2022-09-30T01:32:33.576Z,7.63
2022-09-30T01:35:07.427Z,7.60
2022-09-30T01:37:55.996Z,7.00
2022-09-30T01:40:32.748Z,6.17
2022-09-30T01:43:17.995Z,6.63
2022-09-30T01:45:51.176Z,7.00
2022-09-30T01:48:28.890Z,7.03
2022-09-30T01:51:09.929Z,7.10
2022-09-30T01:54:04.176Z,7.00
2022-09-30T01:56:53.871Z,7.00
2022-09-30T01:59:49.265Z,6.63
2022-09-30T02:02:23.074Z,7.07
2022-09-30T02:05:05.833Z,6.80
2022-09-30T02:07:58.594Z,7.20
2022-09-30T02:10:30.772Z,6.10
2022-09-30T02:13:05.133Z,6.73
2022-09-30T02:15:40.259Z,7.10
2022-09-30T02:18:31.729Z,6.40
2022-09-30T02:21:02.777Z,6.13
2022-09-30T02:23:33.641Z,7.10
2022-09-30T02:26:07.120Z,6.80
2022-09-30T02:28:39.385Z,6.53
2022-09-30T02:31:08.479Z,6.80
2022-09-30T02:33:54.869Z,7.07
2022-09-30T02:36:28.885Z,7.10
2022-09-30T02:39:10.499Z,6.77
2022-09-30T02:41:46.787Z,7.87
2022-09-30T02:44:14.813Z,6.60
2022-09-30T02:47:04.009Z,6.87
2022-09-30T02:49:47.293Z,7.13
2022-09-30T02:52:25.992Z,6.87
2022-09-30T02:55:13.727Z,6.90
2022-09-30T02:57:49.401Z,7.63
2022-09-30T03:00:16.280Z,6.77
2022-09-30T03:02:42.670Z,7.00
2022-09-30T03:05:10.121Z,7.17
2022-09-30T03:07:37.254Z,7.50
2022-09-30T03:10:16.374Z,7.80
2022-09-30T03:13:26.385Z,7.50
2022-09-30T03:16:11.914Z,7.53
2022-09-30T03:19:06.391Z,7.27
2022-09-30T03:21:39.276Z,6.70
2022-09-30T03:24:17.798Z,7.10
2022-09-30T03:27:08.925Z,7.50
2022-09-30T03:29:48.934Z,7.60
2022-09-30T03:32:27.957Z,6.70
2022-09-30T03:35:12.723Z,7.43
2022-09-30T03:37:51.073Z,7.53
2022-09-30T03:40:41.109Z,7.40
2022-09-30T03:43:46.529Z,7.37
2022-09-30T03:46:36.216Z,7.70
2022-09-30T03:49:06.908Z,7.97
2022-09-30T03:51:37.918Z,7.83
2022-09-30T03:54:11.213Z,7.47
2022-09-30T03:56:42.958Z,7.70
2022-09-30T03:59:12.263Z,7.87
2022-09-30T04:01:39.751Z,6.97
2022-09-30T04:04:06.161Z,7.47
2022-09-30T04:06:32.498Z,7.77
2022-09-30T04:08:58.959Z,7.20
2022-09-30T04:11:25.434Z,7.47
2022-09-30T04:13:51.847Z,7.60
2022-09-30T04:16:18.997Z,6.77
2022-09-30T04:18:45.379Z,7.63
2022-09-30T04:21:14.675Z,7.53
2022-09-30T04:23:42.551Z,6.70
2022-09-30T04:26:13.583Z,7.70
2022-09-30T04:28:40.005Z,6.63
2022-09-30T04:31:06.725Z,7.27
2022-09-30T04:33:33.557Z,8.10
2022-09-30T04:36:01.033Z,8.63
2022-09-30T04:38:27.680Z,7.80
2022-09-30T04:40:54.769Z,7.10
2022-09-30T04:43:25.026Z,8.10
2022-09-30T04:45:52.785Z,7.90
2022-09-30T04:48:19.740Z,7.27
2022-09-30T04:50:46.106Z,8.13
2022-09-30T04:53:14.591Z,7.53
2022-09-30T04:55:42.029Z,7.30
2022-09-30T04:58:08.789Z,7.53
2022-09-30T05:00:35.506Z,8.80
2022-09-30T05:03:03.153Z,8.60
2022-09-30T05:05:30.258Z,7.33
2022-09-30T05:08:01.138Z,7.90
2022-09-30T05:10:27.840Z,7.50
2022-09-30T05:12:54.279Z,7.50
2022-09-30T05:15:20.626Z,7.50
2022-09-30T05:17:49.323Z,8.03
2022-09-30T05:20:20.828Z,8.03
2022-09-30T05:22:47.597Z,8.47
2022-09-30T05:25:13.950Z,7.60
2022-09-30T05:27:40.271Z,7.97
2022-09-30T05:30:07.115Z,8.53
2022-09-30T05:32:33.649Z,7.40
2022-09-30T05:35:01.259Z,9.30
2022-09-30T05:37:27.621Z,8.87
2022-09-30T05:39:54.946Z,7.87
2022-09-30T05:42:21.289Z,8.43
2022-09-30T05:44:47.628Z,8.30
2022-09-30T05:47:13.976Z,8.60
2022-09-30T05:49:41.710Z,8.00
2022-09-30T05:52:08.160Z,7.80
2022-09-30T05:54:34.522Z,8.03
2022-09-30T05:57:00.989Z,7.73
2022-09-30T05:59:27.392Z,8.50
2022-09-30T06:01:53.912Z,9.80
2022-09-30T06:04:21.581Z,8.20
2022-09-30T06:06:49.077Z,8.43
2022-09-30T06:09:16.715Z,8.00
2022-09-30T06:11:43.118Z,8.17
2022-09-30T06:14:09.451Z,7.83
2022-09-30T06:16:36.197Z,8.80
2022-09-30T06:19:02.590Z,8.23
2022-09-30T06:21:29.114Z,8.70
2022-09-30T06:23:55.443Z,7.70
2022-09-30T06:26:21.850Z,8.23
2022-09-30T06:28:48.337Z,9.40
2022-09-30T06:31:14.770Z,8.77
2022-09-30T06:33:42.470Z,8.40
2022-09-30T06:36:08.809Z,7.80
2022-09-30T06:38:39.940Z,9.00
2022-09-30T06:41:06.458Z,8.60
2022-09-30T06:43:39.676Z,8.73
2022-09-30T06:46:17.725Z,8.60
2022-09-30T06:48:48.402Z,8.77
2022-09-30T06:51:14.818Z,9.43
2022-09-30T06:53:41.653Z,8.60
2022-09-30T06:56:08.133Z,8.30
2022-09-30T06:58:34.558Z,8.93
2022-09-30T07:01:04.325Z,9.60
2022-09-30T07:03:33.765Z,9.30
2022-09-30T07:06:03.690Z,9.20
2022-09-30T07:08:32.113Z,8.87
2022-09-30T07:10:59.411Z,8.73
2022-09-30T07:13:26.498Z,9.40
2022-09-30T07:15:54.725Z,8.80
2022-09-30T07:18:21.800Z,9.10
2022-09-30T07:20:52.831Z,8.53
2022-09-30T07:23:24.408Z,9.47
2022-09-30T07:25:56.732Z,9.63
2022-09-30T07:28:27.922Z,8.03
2022-09-30T07:31:13.494Z,9.07
2022-09-30T07:33:43.211Z,9.10
2022-09-30T07:36:10.982Z,9.77
2022-09-30T07:38:40.505Z,8.97
2022-09-30T07:41:10.658Z,9.33
2022-09-30T07:43:38.653Z,10.37
2022-09-30T07:46:15.106Z,10.20
2022-09-30T07:48:43.859Z,10.33
2022-09-30T07:51:13.239Z,9.47
2022-09-30T07:53:41.046Z,10.00
2022-09-30T07:56:08.500Z,10.23
2022-09-30T07:58:35.422Z,10.30
2022-09-30T08:01:02.946Z,9.80
2022-09-30T08:03:29.390Z,9.93
2022-09-30T08:05:55.779Z,9.90
2022-09-30T08:08:22.203Z,9.27
2022-09-30T08:10:48.547Z,9.53
2022-09-30T08:13:16.570Z,9.23
2022-09-30T08:15:43.182Z,9.10
2022-09-30T08:18:09.813Z,9.20
2022-09-30T08:20:36.257Z,8.73
2022-09-30T08:23:02.599Z,9.27
2022-09-30T08:25:29.010Z,8.33
2022-09-30T08:27:55.566Z,8.47
2022-09-30T08:30:22.067Z,8.17
2022-09-30T08:32:48.408Z,8.30
2022-09-30T08:35:14.806Z,8.00
2022-09-30T08:37:41.228Z,7.63
2022-09-30T08:40:18.094Z,7.17
2022-09-30T08:43:02.817Z,8.10
2022-09-30T08:45:37.318Z,7.37
2022-09-30T08:48:19.280Z,7.30
2022-09-30T08:50:48.363Z,8.30
2022-09-30T08:53:30.164Z,7.90
2022-09-30T08:56:02.324Z,6.90
2022-09-30T08:58:31.767Z,7.13
2022-09-30T09:01:05.285Z,7.60
2022-09-30T09:03:34.098Z,7.63
2022-09-30T09:06:10.079Z,7.33
2022-09-30T09:08:55.655Z,7.77
2022-09-30T09:11:42.717Z,7.63
2022-09-30T09:14:26.159Z,7.30
2022-09-30T09:17:15.452Z,7.60
2022-09-30T09:19:50.207Z,7.53
2022-09-30T09:22:20.112Z,7.50
2022-09-30T09:24:51.671Z,7.50
2022-09-30T09:27:21.674Z,6.30
2022-09-30T09:30:05.020Z,6.50
2022-09-30T09:32:31.366Z,6.70
2022-09-30T09:35:01.777Z,6.47
2022-09-30T09:38:13.791Z,5.90
2022-09-30T09:41:06.363Z,18.87
2022-09-30T09:43:49.513Z,6.50
2022-09-30T09:46:21.026Z,5.60
2022-09-30T09:48:47.374Z,5.27
2022-09-30T09:51:28.647Z,13.47
2022-09-30T09:54:00.196Z,6.10
2022-09-30T09:56:32.334Z,23.83
2022-09-30T09:59:06.184Z,5.30
2022-09-30T10:01:34.870Z,5.47
2022-09-30T10:04:12.385Z,5.47
2022-09-30T10:07:01.464Z,8.47
2022-09-30T10:09:29.973Z,5.37
2022-09-30T10:12:26.294Z,5.67
2022-09-30T10:15:18.706Z,5.67
2022-09-30T10:17:54.898Z,6.50
2022-09-30T10:20:36.930Z,5.00
2022-09-30T10:23:19.802Z,5.30
2022-09-30T10:26:15.420Z,4.93
2022-09-30T10:28:51.861Z,5.30
2022-09-30T10:31:27.031Z,4.60
2022-09-30T10:34:04.287Z,5.20
2022-09-30T10:36:36.531Z,5.03
2022-09-30T10:39:07.516Z,4.80
2022-09-30T10:41:36.889Z,4.97
2022-09-30T10:44:18.141Z,6.33
2022-09-30T10:46:47.118Z,4.90
2022-09-30T10:49:42.083Z,6.13
2022-09-30T10:52:27.761Z,5.97
2022-09-30T10:54:56.842Z,5.70
2022-09-30T10:57:26.899Z,6.10
2022-09-30T11:00:00.620Z,5.73
2022-09-30T11:02:43.597Z,5.27
2022-09-30T11:05:24.354Z,4.67
2022-09-30T11:08:01.094Z,5.67
2022-09-30T11:10:38.447Z,5.60
2022-09-30T11:13:20.259Z,5.40
2022-09-30T11:16:34.315Z,5.50
2022-09-30T11:19:17.564Z,4.30
2022-09-30T11:21:52.994Z,5.37
2022-09-30T11:24:34.013Z,5.17
2022-09-30T11:27:16.336Z,5.67
2022-09-30T11:29:48.682Z,5.63
2022-09-30T11:32:36.946Z,5.23
2022-09-30T11:35:37.158Z,4.67
2022-09-30T11:38:33.162Z,4.73
2022-09-30T11:41:24.203Z,5.00
2022-09-30T11:44:16.530Z,4.43
2022-09-30T11:47:21.770Z,4.60
2022-09-30T11:50:17.353Z,4.17
2022-09-30T11:53:25.750Z,4.30
2022-09-30T11:56:04.433Z,4.17
2022-09-30T11:58:42.000Z,4.23
2022-09-30T12:01:08.726Z,3.70
2022-09-30T12:03:55.906Z,3.90
2022-09-30T12:06:36.345Z,4.77
2022-09-30T12:09:16.679Z,5.03
2022-09-30T12:11:53.207Z,5.80
2022-09-30T12:14:27.462Z,5.83
2022-09-30T12:16:56.639Z,5.50
2022-09-30T12:19:36.198Z,5.60
2022-09-30T12:22:14.194Z,5.90
2022-09-30T12:24:44.410Z,6.33
2022-09-30T12:27:26.625Z,5.30
2022-09-30T12:30:20.328Z,5.50
2022-09-30T12:33:15.367Z,4.83
2022-09-30T12:35:52.611Z,4.50
2022-09-30T12:38:58.159Z,4.50
2022-09-30T12:41:51.308Z,3.83
2022-09-30T12:44:41.832Z,3.97
2022-09-30T12:47:36.310Z,4.13
2022-09-30T12:50:08.136Z,4.30
2022-09-30T12:52:36.891Z,4.77
2022-09-30T12:55:12.599Z,4.60
2022-09-30T12:57:43.089Z,4.50
2022-09-30T13:00:22.358Z,4.37
2022-09-30T13:02:55.474Z,4.87
2022-09-30T13:05:27.592Z,4.00
2022-09-30T13:08:24.884Z,4.10
2022-09-30T13:11:00.341Z,4.00
2022-09-30T13:13:31.703Z,4.03
2022-09-30T13:16:06.336Z,4.40
2022-09-30T13:18:32.683Z,3.80
2022-09-30T13:21:04.708Z,4.30
2022-09-30T13:23:45.718Z,3.67
2022-09-30T13:26:27.632Z,3.30
2022-09-30T13:29:00.339Z,3.50
2022-09-30T13:31:28.457Z,3.43
2022-09-30T13:34:10.294Z,3.23
2022-09-30T13:36:56.659Z,2.90
2022-09-30T13:39:23.021Z,2.80
2022-09-30T13:42:21.521Z,2.63
2022-09-30T13:45:18.424Z,2.63
2022-09-30T13:47:48.029Z,2.60
2022-09-30T13:50:29.404Z,2.90
2022-09-30T13:53:00.941Z,3.23
2022-09-30T13:55:42.256Z,2.50
2022-09-30T13:58:43.232Z,2.67
2022-09-30T14:01:35.999Z,1.90
2022-09-30T14:04:41.949Z,2.10
2022-09-30T14:07:40.921Z,2.23
2022-09-30T14:10:13.815Z,2.00
2022-09-30T14:12:49.334Z,2.20
2022-09-30T14:15:40.590Z,2.40
2022-09-30T14:18:28.470Z,2.03
2022-09-30T14:21:31.943Z,2.33
2022-09-30T14:24:09.389Z,2.00
2022-09-30T14:26:56.245Z,2.53
2022-09-30T14:30:08.100Z,1.90
2022-09-30T14:32:46.111Z,2.20
2022-09-30T14:38:07.726Z,1.87
2022-09-30T14:40:40.569Z,1.73
2022-09-30T14:43:13.180Z,1.43
2022-09-30T14:45:45.462Z,1.60
2022-09-30T14:48:20.599Z,1.90
2022-09-30T14:50:54.138Z,1.90
2022-09-30T14:53:32.543Z,2.10
2022-09-30T14:55:59.976Z,2.10
2022-09-30T14:58:31.619Z,3.20
2022-09-30T15:01:06.595Z,2.30
2022-09-30T15:03:36.779Z,2.20
2022-09-30T15:06:04.129Z,8.40
2022-09-30T15:08:30.548Z,3.43
2022-09-30T15:10:57.159Z,9.60
2022-09-30T15:13:31.875Z,3.03
2022-09-30T15:15:59.105Z,2.57
2022-09-30T15:18:26.336Z,2.70
2022-09-30T15:20:55.179Z,2.17
2022-09-30T15:23:27.011Z,2.57
2022-09-30T15:25:54.497Z,2.30
2022-09-30T15:28:21.298Z,3.20
2022-09-30T15:30:47.805Z,3.10
2022-09-30T15:33:18.204Z,2.50
2022-09-30T15:35:45.313Z,2.33
2022-09-30T15:38:27.650Z,1.90
2022-09-30T15:41:00.275Z,2.00
2022-09-30T15:43:42.297Z,1.90
2022-09-30T15:46:18.067Z,2.03
2022-09-30T15:48:45.079Z,2.40
2022-09-30T15:51:36.245Z,1.90
2022-09-30T15:54:31.784Z,2.20
2022-09-30T15:57:04.390Z,2.10
2022-09-30T16:00:07.923Z,2.10
2022-09-30T16:02:35.393Z,2.50
2022-09-30T16:05:02.804Z,2.03
2022-09-30T16:07:32.109Z,2.70
2022-09-30T16:09:59.474Z,2.23
2022-09-30T16:12:33.899Z,2.20
2022-09-30T16:15:08.518Z,2.23
2022-09-30T16:17:39.573Z,2.37
2022-09-30T16:20:21.180Z,2.03
2022-09-30T16:22:48.134Z,1.87
2022-09-30T16:25:33.578Z,2.50
2022-09-30T16:28:12.317Z,2.40
2022-09-30T16:30:47.946Z,1.90
2022-09-30T16:33:16.004Z,2.10
2022-09-30T16:35:44.174Z,2.30
2022-09-30T16:38:13.762Z,2.10
2022-09-30T16:40:40.367Z,2.23
2022-09-30T16:43:07.872Z,2.00
2022-09-30T16:45:35.188Z,2.07
2022-09-30T16:48:02.394Z,1.60
2022-09-30T16:50:33.389Z,2.00
2022-09-30T16:52:59.750Z,1.87
2022-09-30T16:55:27.080Z,1.80
2022-09-30T16:57:57.109Z,2.10
2022-09-30T17:00:24.778Z,1.70
2022-09-30T17:02:51.279Z,2.30
2022-09-30T17:05:20.718Z,2.43
2022-09-30T17:07:50.870Z,1.83
2022-09-30T17:10:20.735Z,1.87
2022-09-30T17:12:47.901Z,2.23
2022-09-30T17:15:14.876Z,2.23
2022-09-30T17:17:41.226Z,2.97
2022-09-30T17:20:08.451Z,2.10
2022-09-30T17:22:34.841Z,2.20
2022-09-30T17:25:01.168Z,2.20
2022-09-30T17:27:27.502Z,2.23
2022-09-30T17:29:53.824Z,2.70
2022-09-30T17:32:20.166Z,2.30
2022-09-30T17:34:46.574Z,3.17
2022-09-30T17:37:15.765Z,3.00
2022-09-30T17:39:42.075Z,3.00
2022-09-30T17:42:34.251Z,3.17
2022-09-30T17:45:00.602Z,3.20
2022-09-30T17:47:27.231Z,3.10
2022-09-30T17:49:54.019Z,2.43
2022-09-30T17:52:21.087Z,2.90
2022-09-30T17:54:52.428Z,2.80
2022-09-30T17:57:20.552Z,3.30
2022-09-30T17:59:46.984Z,4.00
2022-09-30T18:02:15.732Z,4.27
2022-09-30T18:04:42.402Z,4.00
2022-09-30T18:07:10.159Z,3.97
2022-09-30T18:09:38.201Z,4.33
2022-09-30T18:12:07.201Z,5.40
2022-09-30T18:14:38.297Z,5.40
2022-09-30T18:17:06.095Z,5.60
2022-09-30T18:19:33.207Z,5.70
2022-09-30T18:21:59.526Z,5.47
2022-09-30T18:24:44.393Z,5.10
2022-09-30T18:27:11.055Z,4.37
2022-09-30T18:29:38.515Z,4.40
2022-09-30T18:32:05.719Z,4.93
2022-09-30T18:34:33.331Z,3.90
2022-09-30T18:37:03.973Z,3.80
2022-09-30T18:39:31.208Z,4.10
2022-09-30T18:41:57.587Z,3.67
2022-09-30T18:44:25.650Z,4.20
2022-09-30T18:46:53.010Z,3.70
2022-09-30T18:49:19.527Z,3.37
2022-09-30T18:51:45.931Z,3.63
2022-09-30T18:54:15.188Z,3.30
2022-09-30T18:56:43.931Z,4.53
2022-09-30T18:59:18.216Z,4.40
2022-09-30T19:01:47.995Z,4.77
2022-09-30T19:04:15.108Z,4.17
2022-09-30T19:06:47.529Z,4.63
2022-09-30T19:09:17.029Z,4.10
2022-09-30T19:11:44.735Z,3.87
2022-09-30T19:14:12.826Z,3.40
2022-09-30T19:16:40.512Z,4.33
2022-09-30T19:19:10.583Z,3.93
2022-09-30T19:21:38.594Z,4.00
2022-09-30T19:24:07.758Z,3.90
2022-09-30T19:26:36.503Z,4.47
2022-09-30T19:29:05.516Z,4.60
2022-09-30T19:31:33.979Z,4.70
2022-09-30T19:34:04.610Z,4.80
2022-09-30T19:36:44.177Z,4.87
2022-09-30T19:39:14.142Z,5.30
2022-09-30T19:41:40.481Z,5.40
2022-09-30T19:44:07.068Z,5.27
2022-09-30T19:46:33.518Z,5.67
2022-09-30T19:49:00.319Z,4.90
2022-09-30T19:51:29.439Z,4.97
2022-09-30T19:54:05.984Z,4.50
2022-09-30T19:56:35.676Z,4.40
2022-09-30T19:59:03.111Z,4.40
2022-09-30T20:01:30.960Z,4.40
2022-09-30T20:04:00.135Z,4.90
2022-09-30T20:06:28.062Z,5.33
2022-09-30T20:09:00.112Z,5.00
2022-09-30T20:11:29.708Z,4.87
2022-09-30T20:14:15.754Z,4.50
2022-09-30T20:16:43.681Z,4.03
2022-09-30T20:19:11.436Z,4.57
2022-09-30T20:21:38.766Z,5.10
2022-09-30T20:24:05.616Z,5.23
2022-09-30T20:26:32.637Z,5.03
2022-09-30T20:29:00.508Z,4.37
2022-09-30T20:31:27.499Z,4.20
2022-09-30T20:33:59.328Z,4.10
2022-09-30T20:36:28.210Z,4.33
2022-09-30T20:39:00.442Z,4.60
2022-09-30T20:41:28.184Z,3.67
2022-09-30T20:43:54.672Z,4.00
2022-09-30T20:46:22.953Z,4.37
2022-09-30T20:48:50.000Z,4.10
2022-09-30T20:51:19.181Z,4.00
2022-09-30T20:53:50.733Z,4.17
2022-09-30T20:56:19.653Z,4.00
2022-09-30T20:58:46.714Z,4.13
2022-09-30T21:01:14.720Z,4.40
2022-09-30T21:03:41.537Z,4.27
2022-09-30T21:06:12.589Z,3.90
2022-09-30T21:08:40.687Z,4.13
2022-09-30T21:11:08.076Z,4.33
2022-09-30T21:13:35.196Z,4.30
2022-09-30T21:16:03.972Z,4.27
2022-09-30T21:18:31.080Z,4.23
2022-09-30T21:20:59.071Z,4.20
2022-09-30T21:23:30.324Z,4.53
2022-09-30T21:26:14.623Z,4.20
2022-09-30T21:28:44.331Z,4.30
2022-09-30T21:31:24.034Z,4.40
2022-09-30T21:33:58.668Z,4.00
2022-09-30T21:36:26.849Z,4.53
2022-09-30T21:38:54.712Z,4.50
2022-09-30T21:41:21.075Z,5.07
2022-09-30T21:43:47.485Z,4.10
2022-09-30T21:46:15.653Z,3.80
2022-09-30T21:48:43.034Z,4.67
2022-09-30T21:51:09.935Z,4.13
2022-09-30T21:53:36.640Z,4.47
2022-09-30T21:56:03.722Z,4.43
2022-09-30T21:58:32.322Z,4.50
2022-09-30T22:01:02.197Z,4.30
2022-09-30T22:03:37.284Z,4.30
2022-09-30T22:06:07.957Z,4.67
2022-09-30T22:08:41.563Z,4.17
2022-09-30T22:11:24.754Z,4.50
2022-09-30T22:13:56.368Z,4.40
2022-09-30T22:16:27.054Z,4.13
2022-09-30T22:18:54.688Z,4.77
2022-09-30T22:21:21.522Z,4.10
2022-09-30T22:23:48.666Z,4.10
2022-09-30T22:26:18.045Z,4.20
2022-09-30T22:28:52.537Z,4.30
2022-09-30T22:31:24.891Z,4.07
2022-09-30T22:34:15.043Z,4.50
2022-09-30T22:37:00.295Z,4.40
2022-09-30T22:39:26.893Z,4.33
2022-09-30T22:41:55.356Z,4.37
2022-09-30T22:44:23.605Z,4.47
2022-09-30T22:46:50.634Z,4.80
2022-09-30T22:49:17.214Z,4.63
2022-09-30T22:51:43.545Z,4.70
2022-09-30T22:54:09.870Z,4.87
2022-09-30T22:56:36.223Z,4.53
2022-09-30T22:59:02.568Z,4.80
2022-09-30T23:01:29.633Z,4.90
2022-09-30T23:03:56.199Z,4.60
2022-09-30T23:06:24.292Z,4.70
2022-09-30T23:08:54.284Z,4.60
2022-09-30T23:11:23.082Z,5.60
2022-09-30T23:13:51.182Z,5.00
2022-09-30T23:16:19.096Z,4.90
2022-09-30T23:18:46.307Z,4.90
2022-09-30T23:21:18.330Z,4.50
2022-09-30T23:23:46.199Z,5.00
2022-09-30T23:26:15.338Z,5.30
2022-09-30T23:28:41.969Z,5.10
2022-09-30T23:31:16.487Z,4.80
2022-09-30T23:33:51.222Z,5.00
2022-09-30T23:36:20.363Z,4.80
2022-09-30T23:38:47.239Z,4.70
2022-09-30T23:41:14.010Z,4.93
2022-09-30T23:43:45.659Z,4.40
2022-09-30T23:46:12.446Z,4.40
2022-09-30T23:48:38.977Z,5.23
2022-09-30T23:51:05.938Z,4.80
2022-09-30T23:53:33.645Z,5.23
2022-09-30T23:56:05.822Z,4.60
2022-09-30T23:58:33.841Z,5.13
